Almena, Wisconsin
Current Conditions -  °F | °C
As of 4:35 PM on Monday 24 Nov 2014 (Local Time) from KUBE Reporting Station
Overcast Overcast  
Wind Chill: -13°   Ceiling: 1500
Heat Index: -5°   Visibility: 10mi
Dew Point: -8°   Wind: 21mph
Humidity: 80%   Direction: 320°NW
Pressure: 29.53"   Gusts: NA
Location:  45.42°N, 92.03°W
Report Text: KUBE 242235Z AUTO 32018KT 10SM OVC015 M05/M08 A2953 RMK AO2
Loading
Personal Weather Stations






























Interactive Weather Map New forecast layout! Learn more

10-Day Weather Forecast

Advertisements
Track Severe Weather on mobile